createdAt,value
2023-04-11T00:00:15.497Z,14.55
2023-04-11T00:02:44.074Z,13.90
2023-04-11T00:05:12.776Z,14.25
2023-04-11T00:07:41.137Z,13.93
2023-04-11T00:10:12.066Z,13.30
2023-04-11T00:12:40.370Z,13.00
2023-04-11T00:15:09.974Z,14.13
2023-04-11T00:17:38.518Z,11.35
2023-04-11T00:20:11.037Z,12.18
2023-04-11T00:22:42.060Z,12.00
2023-04-11T00:25:12.139Z,12.25
2023-04-11T00:27:40.516Z,10.60
2023-04-11T00:30:10.261Z,12.27
2023-04-11T00:32:38.708Z,12.02
2023-04-11T00:35:08.817Z,11.32
2023-04-11T00:37:37.271Z,11.25
2023-04-11T00:40:07.788Z,11.38
2023-04-11T00:42:37.638Z,12.05
2023-04-11T00:45:07.533Z,11.98
2023-04-11T00:47:36.773Z,12.82
2023-04-11T00:50:06.447Z,13.10
2023-04-11T00:52:35.347Z,11.65
2023-04-11T00:55:04.441Z,13.55
2023-04-11T00:57:32.827Z,12.68
2023-04-11T01:00:04.796Z,12.20
2023-04-11T01:02:33.495Z,12.82
2023-04-11T01:05:02.269Z,12.15
2023-04-11T01:07:32.393Z,12.60
2023-04-11T01:10:02.617Z,10.65
2023-04-11T01:12:31.759Z,12.38
2023-04-11T01:15:01.743Z,12.57
2023-04-11T01:17:30.352Z,10.70
2023-04-11T01:19:58.845Z,11.65
2023-04-11T01:22:28.038Z,11.90
2023-04-11T01:24:57.979Z,12.27
2023-04-11T01:27:26.457Z,11.95
2023-04-11T01:29:54.838Z,11.10
2023-04-11T01:32:23.293Z,13.05
2023-04-11T01:34:54.710Z,11.07
2023-04-11T01:37:23.151Z,9.80
2023-04-11T01:39:51.933Z,11.70
2023-04-11T01:42:23.624Z,12.50
2023-04-11T01:44:52.733Z,11.93
2023-04-11T01:47:22.265Z,12.18
2023-04-11T01:49:51.209Z,11.50
2023-04-11T01:52:19.638Z,11.60
2023-04-11T01:54:48.062Z,11.77
2023-04-11T01:57:16.478Z,11.23
2023-04-11T01:59:46.181Z,10.88
2023-04-11T02:02:14.719Z,11.23
2023-04-11T02:04:43.257Z,14.32
2023-04-11T02:07:12.077Z,13.20
2023-04-11T02:09:40.544Z,12.18
2023-04-11T02:12:08.925Z,11.35
2023-04-11T02:14:46.949Z,11.10
2023-04-11T02:17:15.790Z,13.18
2023-04-11T02:19:45.582Z,11.95
2023-04-11T02:22:14.703Z,12.05
2023-04-11T02:24:43.532Z,11.90
2023-04-11T02:27:13.089Z,11.25
2023-04-11T02:29:41.437Z,11.35
2023-04-11T02:32:11.409Z,10.45
2023-04-11T02:34:39.828Z,11.40
2023-04-11T02:37:08.228Z,12.55
2023-04-11T02:39:36.573Z,12.55
2023-04-11T02:42:05.121Z,13.15
2023-04-11T02:44:33.568Z,11.07
2023-04-11T02:47:02.128Z,10.55
2023-04-11T02:49:31.850Z,11.98
2023-04-11T02:52:00.241Z,12.70
2023-04-11T02:54:28.560Z,11.35
2023-04-11T02:56:56.979Z,13.57
2023-04-11T02:59:25.368Z,11.73
2023-04-11T03:01:59.688Z,12.05
2023-04-11T03:04:28.589Z,11.35
2023-04-11T03:06:58.440Z,11.60
2023-04-11T03:09:27.070Z,12.52
2023-04-11T03:11:56.124Z,12.38
2023-04-11T03:14:24.523Z,12.05
2023-04-11T03:16:52.923Z,12.05
2023-04-11T03:19:21.329Z,12.95
2023-04-11T03:21:49.720Z,12.15
2023-04-11T03:24:19.473Z,11.20
2023-04-11T03:26:47.784Z,11.20
2023-04-11T03:29:16.644Z,11.05
2023-04-11T03:31:45.128Z,10.85
2023-04-11T03:34:13.548Z,11.85
2023-04-11T03:36:41.938Z,11.52
2023-04-11T03:39:10.375Z,11.27
2023-04-11T03:41:40.143Z,12.40
2023-04-11T03:44:08.588Z,12.48
2023-04-11T03:46:37.060Z,12.50
2023-04-11T03:49:05.655Z,11.77
2023-04-11T03:51:34.183Z,12.10
2023-04-11T03:54:02.565Z,12.10
2023-04-11T03:56:30.918Z,12.20
2023-04-11T03:59:00.638Z,12.52
2023-04-11T04:01:29.012Z,12.68
2023-04-11T04:03:57.679Z,13.52
2023-04-11T04:06:26.742Z,13.95
2023-04-11T04:08:55.021Z,14.35
2023-04-11T04:11:23.346Z,14.85
2023-04-11T04:13:51.753Z,13.23
2023-04-11T04:16:22.559Z,13.95
2023-04-11T04:18:50.938Z,13.13
2023-04-11T04:21:19.456Z,12.10
2023-04-11T04:23:48.461Z,13.73
2023-04-11T04:26:17.307Z,13.55
2023-04-11T04:28:47.383Z,13.82
2023-04-11T04:31:25.732Z,13.10
2023-04-11T04:33:58.702Z,14.18
2023-04-11T04:36:28.576Z,16.35
2023-04-11T04:39:02.146Z,16.60
2023-04-11T04:41:34.286Z,14.10
2023-04-11T04:44:04.485Z,16.83
2023-04-11T04:46:36.812Z,15.73
2023-04-11T04:49:07.860Z,15.80
2023-04-11T04:51:38.626Z,14.25
2023-04-11T04:54:07.074Z,14.25
2023-04-11T04:56:35.395Z,15.75
2023-04-11T04:59:03.848Z,15.90
2023-04-11T05:01:33.266Z,15.88
2023-04-11T05:04:02.934Z,15.93
2023-04-11T05:06:33.702Z,15.18
2023-04-11T05:09:06.207Z,15.93
2023-04-11T05:11:34.879Z,13.73
2023-04-11T05:14:03.407Z,14.40
2023-04-11T05:16:31.973Z,14.25
2023-04-11T05:19:00.511Z,15.48
2023-04-11T05:21:28.860Z,16.60
2023-04-11T05:23:58.606Z,18.17
2023-04-11T05:26:27.636Z,17.38
2023-04-11T05:28:55.940Z,15.88
2023-04-11T05:31:25.719Z,17.02
2023-04-11T05:33:54.624Z,18.77
2023-04-11T05:36:23.677Z,19.55
2023-04-11T05:38:52.132Z,18.67
2023-04-11T05:41:21.896Z,18.88
2023-04-11T05:43:50.299Z,19.25
2023-04-11T05:46:19.181Z,18.83
2023-04-11T05:48:47.669Z,18.05
2023-04-11T05:51:16.061Z,17.95
2023-04-11T05:53:44.975Z,18.65
2023-04-11T05:56:13.529Z,21.40
2023-04-11T05:58:44.496Z,18.30
2023-04-11T06:01:18.706Z,19.35
2023-04-11T06:03:47.355Z,18.55
2023-04-11T06:06:16.200Z,18.60
2023-04-11T06:08:44.720Z,18.85
2023-04-11T06:11:13.148Z,18.02
2023-04-11T06:13:42.816Z,19.63
2023-04-11T06:16:11.565Z,18.83
2023-04-11T06:18:40.089Z,28.42
2023-04-11T06:21:08.557Z,20.80
2023-04-11T06:23:36.973Z,21.08
2023-04-11T06:26:05.522Z,20.05
2023-04-11T06:28:33.941Z,20.42
2023-04-11T06:31:04.346Z,22.35
2023-04-11T06:33:32.777Z,22.75
2023-04-11T06:36:01.398Z,49.63
2023-04-11T06:38:30.273Z,25.42
2023-04-11T06:40:58.699Z,23.35
2023-04-11T06:43:27.034Z,21.10
2023-04-11T06:45:55.503Z,24.75
2023-04-11T06:48:25.448Z,24.60
2023-04-11T06:50:53.772Z,20.48
2023-04-11T06:53:22.020Z,21.77
2023-04-11T06:55:50.619Z,22.45
2023-04-11T06:58:19.016Z,22.17
2023-04-11T07:00:47.370Z,22.13
2023-04-11T07:03:15.923Z,20.40
2023-04-11T07:05:45.770Z,21.67
2023-04-11T07:08:14.154Z,20.58
2023-04-11T07:10:42.539Z,19.60
2023-04-11T07:13:11.078Z,19.25
2023-04-11T07:15:39.455Z,20.98
2023-04-11T07:18:07.907Z,19.48
2023-04-11T07:20:36.326Z,18.50
2023-04-11T07:23:06.101Z,16.83
2023-04-11T07:25:34.586Z,14.13
2023-04-11T07:28:07.462Z,15.80
2023-04-11T07:30:36.660Z,16.42
2023-04-11T07:33:05.565Z,15.20
2023-04-11T07:35:34.846Z,14.15
2023-04-11T07:38:05.080Z,17.98
2023-04-11T07:40:33.845Z,16.15
2023-04-11T07:43:02.281Z,13.43
2023-04-11T07:45:30.858Z,14.48
2023-04-11T07:47:59.336Z,14.10
2023-04-11T07:50:27.858Z,14.77
2023-04-11T07:52:57.679Z,14.13
2023-04-11T07:55:27.474Z,12.85
2023-04-11T07:57:55.896Z,13.88
2023-04-11T08:00:25.114Z,13.50
2023-04-11T08:02:53.611Z,14.88
2023-04-11T08:05:22.163Z,14.68
2023-04-11T08:07:50.721Z,13.30
2023-04-11T08:10:19.224Z,12.07
2023-04-11T08:12:48.940Z,13.38
2023-04-11T08:15:17.707Z,13.50
2023-04-11T08:17:46.734Z,13.65
2023-04-11T08:20:15.245Z,12.95
2023-04-11T08:22:46.917Z,13.30
2023-04-11T08:25:16.698Z,12.57
2023-04-11T08:27:45.122Z,14.15
2023-04-11T08:30:17.001Z,34.25
2023-04-11T08:32:45.521Z,17.73
2023-04-11T08:35:14.152Z,14.60
2023-04-11T08:37:44.425Z,13.40
2023-04-11T08:40:13.145Z,14.93
2023-04-11T08:42:41.470Z,14.13
2023-04-11T08:45:11.628Z,14.50
2023-04-11T08:47:43.932Z,20.83
2023-04-11T08:50:13.871Z,15.38
2023-04-11T08:52:45.315Z,13.63
2023-04-11T08:55:14.615Z,16.92
2023-04-11T08:57:43.408Z,38.40
2023-04-11T09:00:14.620Z,16.63
2023-04-11T09:03:02.828Z,17.15
2023-04-11T09:05:33.409Z,13.43
2023-04-11T09:08:08.093Z,13.82
2023-04-11T09:10:37.549Z,12.32
2023-04-11T09:13:22.484Z,9.27
2023-04-11T09:16:06.409Z,8.05
2023-04-11T09:18:38.386Z,9.48
2023-04-11T09:21:09.236Z,4.35
2023-04-11T09:23:38.569Z,4.53
2023-04-11T09:26:09.138Z,3.20
2023-04-11T09:28:52.797Z,3.58
2023-04-11T09:31:21.804Z,2.72
2023-04-11T09:34:00.583Z,2.03
2023-04-11T09:36:29.113Z,2.00
2023-04-11T09:38:59.293Z,2.42
2023-04-11T09:41:36.042Z,2.58
2023-04-11T09:44:04.693Z,4.00
2023-04-11T09:46:33.235Z,3.92
2023-04-11T09:49:03.651Z,3.22
2023-04-11T09:51:36.966Z,2.75
2023-04-11T09:54:06.522Z,2.65
2023-04-11T09:56:35.581Z,3.72
2023-04-11T09:59:05.401Z,2.50
2023-04-11T10:01:34.418Z,2.30
2023-04-11T10:04:04.847Z,2.65
2023-04-11T10:06:40.989Z,3.08
2023-04-11T10:09:12.287Z,2.92
2023-04-11T10:11:43.144Z,3.67
2023-04-11T10:14:39.150Z,3.08
2023-04-11T10:17:22.170Z,2.63
2023-04-11T10:19:57.273Z,2.45
2023-04-11T10:23:01.149Z,3.60
2023-04-11T10:25:30.185Z,2.78
2023-04-11T10:28:03.899Z,3.35
2023-04-11T10:31:02.379Z,3.08
2023-04-11T10:33:31.226Z,3.08
2023-04-11T10:36:05.428Z,3.90
2023-04-11T10:38:51.249Z,2.75
2023-04-11T10:41:31.901Z,3.28
2023-04-11T10:44:18.208Z,4.22
2023-04-11T10:46:53.832Z,4.93
2023-04-11T10:49:37.554Z,3.05
2023-04-11T10:52:22.069Z,4.85
2023-04-11T10:54:52.073Z,4.30
2023-04-11T10:57:21.657Z,5.97
2023-04-11T11:00:14.246Z,2.90
2023-04-11T11:02:43.253Z,9.13
2023-04-11T11:05:23.718Z,11.73
2023-04-11T11:07:55.487Z,13.10
2023-04-11T11:10:42.398Z,12.70
2023-04-11T11:13:11.423Z,14.13
2023-04-11T11:15:40.139Z,15.23
2023-04-11T11:18:15.442Z,14.93
2023-04-11T11:20:44.052Z,15.25
2023-04-11T11:23:14.009Z,13.93
2023-04-11T11:25:52.968Z,12.60
2023-04-11T11:28:21.560Z,15.13
2023-04-11T11:30:54.883Z,9.88
2023-04-11T11:33:26.609Z,13.80
2023-04-11T11:35:58.441Z,11.93
2023-04-11T11:38:30.342Z,6.82
2023-04-11T11:41:00.182Z,3.85
2023-04-11T11:43:29.335Z,5.35
2023-04-11T11:46:14.316Z,3.25
2023-04-11T11:48:45.024Z,2.97
2023-04-11T11:51:14.258Z,3.00
2023-04-11T11:53:44.026Z,2.80
2023-04-11T11:56:17.096Z,2.40
2023-04-11T11:58:46.345Z,3.35
2023-04-11T12:01:18.730Z,4.97
2023-04-11T12:03:51.655Z,5.32
2023-04-11T12:06:20.782Z,5.13
2023-04-11T12:08:53.968Z,4.68
2023-04-11T12:11:22.671Z,3.50
2023-04-11T12:13:54.661Z,2.85
2023-04-11T12:16:24.393Z,3.03
2023-04-11T12:18:52.993Z,2.58
2023-04-11T12:21:21.406Z,2.63
2023-04-11T12:23:51.221Z,2.95
2023-04-11T12:26:20.983Z,2.67
2023-04-11T12:28:50.192Z,2.72
2023-04-11T12:31:20.163Z,2.72
2023-04-11T12:33:48.725Z,2.63
2023-04-11T12:36:17.163Z,2.53
2023-04-11T12:38:45.676Z,2.38
2023-04-11T12:41:31.486Z,1.92
2023-04-11T12:44:04.116Z,2.22
2023-04-11T12:46:33.767Z,3.63
2023-04-11T12:49:02.288Z,2.47
2023-04-11T12:51:31.366Z,2.15
2023-04-11T12:53:59.672Z,2.22
2023-04-11T12:56:29.432Z,1.67
2023-04-11T12:58:58.037Z,1.75
2023-04-11T13:01:26.631Z,2.60
2023-04-11T13:03:55.170Z,1.75
2023-04-11T13:06:24.676Z,2.17
2023-04-11T13:08:53.173Z,1.90
2023-04-11T13:11:21.800Z,1.98
2023-04-11T13:13:53.796Z,2.35
2023-04-11T13:16:22.204Z,3.70
2023-04-11T13:18:50.989Z,2.60
2023-04-11T13:21:19.902Z,2.40
2023-04-11T13:23:48.316Z,2.70
2023-04-11T13:26:16.643Z,2.35
2023-04-11T13:28:45.069Z,2.22
2023-04-11T13:31:15.007Z,1.65
2023-04-11T13:33:44.923Z,2.10
2023-04-11T13:36:13.584Z,1.83
2023-04-11T13:38:42.009Z,2.42
2023-04-11T13:41:10.435Z,1.65
2023-04-11T13:43:38.874Z,2.28
2023-04-11T13:46:07.754Z,2.17
2023-04-11T13:48:37.636Z,2.30
2023-04-11T13:51:06.688Z,2.10
2023-04-11T13:53:35.101Z,2.65
2023-04-11T13:56:04.162Z,1.45
2023-04-11T13:58:32.861Z,1.50
2023-04-11T14:01:01.441Z,1.50
2023-04-11T14:03:33.679Z,1.83
2023-04-11T14:06:04.312Z,2.20
2023-04-11T14:08:32.746Z,1.98
2023-04-11T14:11:01.490Z,1.40
2023-04-11T14:13:29.874Z,1.90
2023-04-11T14:16:08.107Z,1.30
2023-04-11T14:18:38.015Z,1.27
2023-04-11T14:21:08.923Z,1.10
2023-04-11T14:23:38.705Z,1.23
2023-04-11T14:26:07.834Z,1.45
2023-04-11T14:28:36.779Z,1.17
2023-04-11T14:31:05.553Z,1.10
2023-04-11T14:33:34.073Z,1.65
2023-04-11T14:36:02.726Z,1.52
2023-04-11T14:38:32.524Z,1.98
2023-04-11T14:41:01.366Z,2.45
2023-04-11T14:43:29.776Z,2.95
2023-04-11T14:45:58.527Z,3.42
2023-04-11T14:48:28.828Z,4.05
2023-04-11T14:50:57.277Z,5.13
2023-04-11T14:53:26.157Z,6.03
2023-04-11T14:55:55.964Z,3.78
2023-04-11T14:58:24.432Z,4.13
2023-04-11T15:00:52.940Z,3.42
2023-04-11T15:03:21.724Z,3.53
2023-04-11T15:05:50.225Z,2.80
2023-04-11T15:08:18.624Z,2.63
2023-04-11T15:10:46.987Z,2.53
2023-04-11T15:13:16.923Z,2.40
2023-04-11T15:15:45.298Z,2.47
2023-04-11T15:18:23.721Z,2.00
2023-04-11T15:20:53.478Z,2.35
2023-04-11T15:23:22.514Z,2.70
2023-04-11T15:25:54.852Z,2.72
2023-04-11T15:28:26.663Z,1.92
2023-04-11T15:30:55.950Z,2.63
2023-04-11T15:33:24.757Z,2.40
2023-04-11T15:35:54.699Z,1.42
2023-04-11T15:38:23.297Z,2.33
2023-04-11T15:40:52.516Z,1.67
2023-04-11T15:43:21.394Z,1.83
2023-04-11T15:45:52.366Z,1.95
2023-04-11T15:48:22.672Z,1.30
2023-04-11T15:50:51.757Z,1.80
2023-04-11T15:53:20.762Z,1.50
2023-04-11T15:55:49.316Z,1.88
2023-04-11T15:58:17.975Z,1.88
2023-04-11T16:00:47.053Z,2.08
2023-04-11T16:03:18.058Z,1.40
2023-04-11T16:05:47.310Z,1.75
2023-04-11T16:08:16.075Z,1.90
2023-04-11T16:10:44.537Z,1.90
2023-04-11T16:13:12.971Z,1.95
2023-04-11T16:15:41.324Z,1.58
2023-04-11T16:18:09.790Z,2.40
2023-04-11T16:20:41.062Z,0.90
2023-04-11T16:23:09.463Z,0.98
2023-04-11T16:25:38.678Z,1.15
2023-04-11T16:28:07.222Z,1.63
2023-04-11T16:30:35.748Z,1.90
2023-04-11T16:33:04.309Z,1.48
2023-04-11T16:35:32.801Z,1.17
2023-04-11T16:38:03.157Z,1.83
2023-04-11T16:40:32.286Z,1.15
2023-04-11T16:43:00.722Z,2.00
2023-04-11T16:45:29.344Z,1.17
2023-04-11T16:47:57.892Z,0.90
2023-04-11T16:50:26.746Z,1.40
2023-04-11T16:52:55.230Z,1.42
2023-04-11T16:55:25.197Z,1.90
2023-04-11T16:57:53.522Z,1.75
2023-04-11T17:00:23.955Z,1.92
2023-04-11T17:02:52.519Z,1.73
2023-04-11T17:05:21.304Z,1.90
2023-04-11T17:07:49.757Z,1.70
2023-04-11T17:10:18.304Z,1.63
2023-04-11T17:12:48.176Z,2.47
2023-04-11T17:15:16.773Z,2.15
2023-04-11T17:17:45.436Z,1.88
2023-04-11T17:20:14.827Z,1.60
2023-04-11T17:22:44.502Z,1.70
2023-04-11T17:25:13.155Z,1.50
2023-04-11T17:27:42.115Z,2.03
2023-04-11T17:30:12.603Z,1.80
2023-04-11T17:32:41.098Z,2.30
2023-04-11T17:35:10.871Z,2.90
2023-04-11T17:37:39.799Z,2.33
2023-04-11T17:40:14.506Z,3.42
2023-04-11T17:42:43.347Z,5.07
2023-04-11T17:45:18.226Z,3.80
2023-04-11T17:47:47.850Z,2.47
2023-04-11T17:50:17.296Z,3.50
2023-04-11T17:52:47.520Z,5.65
2023-04-11T17:55:19.183Z,4.18
2023-04-11T17:57:49.194Z,2.90
2023-04-11T18:00:23.522Z,2.67
2023-04-11T18:02:54.836Z,3.10
2023-04-11T18:05:26.851Z,5.15
2023-04-11T18:07:57.698Z,2.10
2023-04-11T18:10:28.380Z,2.10
2023-04-11T18:12:58.912Z,1.75
2023-04-11T18:15:29.227Z,1.88
2023-04-11T18:17:57.585Z,1.90
2023-04-11T18:20:26.567Z,1.63
2023-04-11T18:22:56.531Z,1.92
2023-04-11T18:25:25.297Z,2.47
2023-04-11T18:27:54.015Z,2.40
2023-04-11T18:30:22.434Z,2.75
2023-04-11T18:32:54.137Z,2.20
2023-04-11T18:35:24.728Z,3.47
2023-04-11T18:37:54.487Z,2.17
2023-04-11T18:40:23.439Z,4.72
2023-04-11T18:42:54.381Z,2.92
2023-04-11T18:45:24.297Z,2.00
2023-04-11T18:47:54.732Z,3.25
2023-04-11T18:50:24.014Z,1.35
2023-04-11T18:52:55.941Z,2.03
2023-04-11T18:55:28.806Z,2.08
2023-04-11T18:58:00.396Z,1.95
2023-04-11T19:00:31.722Z,1.95
2023-04-11T19:03:03.495Z,3.50
2023-04-11T19:05:33.511Z,2.53
2023-04-11T19:08:02.235Z,3.42
2023-04-11T19:10:31.097Z,2.88
2023-04-11T19:13:01.134Z,4.60
2023-04-11T19:15:30.909Z,2.80
2023-04-11T19:18:01.153Z,2.75
2023-04-11T19:20:31.732Z,2.03
2023-04-11T19:23:01.728Z,2.92
2023-04-11T19:25:30.698Z,3.20
2023-04-11T19:27:59.858Z,7.05
2023-04-11T19:30:30.650Z,6.75
2023-04-11T19:33:01.563Z,1.67
2023-04-11T19:35:32.912Z,2.47
2023-04-11T19:38:05.908Z,2.15
2023-04-11T19:40:37.007Z,1.63
2023-04-11T19:43:08.285Z,1.70
2023-04-11T19:45:38.980Z,1.80
2023-04-11T19:48:08.794Z,1.52
2023-04-11T19:50:40.251Z,2.08
2023-04-11T19:53:10.627Z,1.75
2023-04-11T19:55:41.073Z,1.20
2023-04-11T19:58:10.514Z,1.38
2023-04-11T20:00:40.913Z,1.35
2023-04-11T20:03:15.139Z,1.75
2023-04-11T20:05:46.436Z,0.95
2023-04-11T20:08:18.330Z,1.85
2023-04-11T20:10:48.099Z,1.40
2023-04-11T20:13:18.547Z,1.63
2023-04-11T20:15:47.488Z,1.58
2023-04-11T20:18:18.168Z,1.10
2023-04-11T20:20:49.442Z,1.70
2023-04-11T20:23:19.079Z,1.95
2023-04-11T20:25:48.947Z,1.25
2023-04-11T20:28:19.031Z,2.17
2023-04-11T20:30:47.503Z,1.10
2023-04-11T20:33:15.872Z,1.08
2023-04-11T20:35:44.290Z,1.20
2023-04-11T20:38:14.367Z,0.70
2023-04-11T20:40:42.791Z,0.90
2023-04-11T20:43:11.232Z,0.65
2023-04-11T20:45:39.635Z,0.77
2023-04-11T20:48:08.864Z,1.15
2023-04-11T20:50:37.646Z,1.40
2023-04-11T20:53:06.137Z,0.90
2023-04-11T20:55:35.926Z,1.05
2023-04-11T20:58:08.398Z,0.90
2023-04-11T21:00:37.884Z,1.10
2023-04-11T21:03:07.201Z,0.70
2023-04-11T21:05:35.925Z,0.73
2023-04-11T21:08:06.571Z,0.90
2023-04-11T21:10:36.326Z,0.95
2023-04-11T21:13:04.736Z,1.25
2023-04-11T21:15:34.879Z,1.02
2023-04-11T21:18:04.872Z,1.48
2023-04-11T21:20:34.597Z,0.68
2023-04-11T21:23:02.897Z,1.48
2023-04-11T21:25:31.536Z,1.10
2023-04-11T21:28:01.321Z,1.23
2023-04-11T21:30:30.668Z,0.68
2023-04-11T21:32:59.080Z,1.30
2023-04-11T21:35:27.639Z,1.63
2023-04-11T21:37:56.069Z,1.48
2023-04-11T21:40:25.132Z,1.38
2023-04-11T21:42:53.539Z,0.90
2023-04-11T21:45:23.524Z,2.13
2023-04-11T21:47:52.766Z,2.08
2023-04-11T21:50:21.367Z,1.20
2023-04-11T21:52:49.747Z,1.77
2023-04-11T21:55:18.225Z,1.42
2023-04-11T21:57:47.169Z,1.08
2023-04-11T22:00:16.070Z,0.90
2023-04-11T22:02:45.987Z,1.05
2023-04-11T22:05:14.523Z,1.20
2023-04-11T22:07:48.811Z,1.05
2023-04-11T22:10:23.904Z,1.50
2023-04-11T22:12:54.594Z,0.77
2023-04-11T22:15:24.328Z,1.42
2023-04-11T22:17:56.536Z,1.10
2023-04-11T22:20:25.199Z,0.98
2023-04-11T22:22:53.610Z,1.00
2023-04-11T22:25:22.528Z,0.95
2023-04-11T22:27:54.917Z,1.48
2023-04-11T22:30:24.445Z,1.33
2023-04-11T22:32:55.612Z,1.38
2023-04-11T22:35:24.863Z,1.50
2023-04-11T22:37:55.430Z,1.00
2023-04-11T22:40:24.137Z,1.23
2023-04-11T22:42:52.960Z,1.40
2023-04-11T22:45:22.654Z,1.65
2023-04-11T22:47:54.266Z,1.30
2023-04-11T22:50:24.744Z,1.30
2023-04-11T22:52:54.835Z,1.50
2023-04-11T22:55:24.871Z,1.45
2023-04-11T22:57:53.252Z,1.70
2023-04-11T23:00:23.903Z,1.90
2023-04-11T23:02:52.573Z,1.02
2023-04-11T23:05:21.300Z,1.50
2023-04-11T23:07:51.773Z,1.52
2023-04-11T23:10:20.320Z,1.30
2023-04-11T23:12:49.545Z,1.85
2023-04-11T23:15:18.465Z,1.35
2023-04-11T23:17:46.880Z,1.58
2023-04-11T23:20:16.903Z,1.55
2023-04-11T23:22:45.800Z,1.52
2023-04-11T23:25:17.058Z,1.45
2023-04-11T23:27:45.939Z,1.70
2023-04-11T23:30:17.768Z,1.42
2023-04-11T23:32:46.310Z,1.58
2023-04-11T23:35:16.927Z,1.23
2023-04-11T23:37:45.757Z,1.35
2023-04-11T23:40:15.955Z,2.05
2023-04-11T23:42:44.353Z,2.17
2023-04-11T23:45:15.015Z,2.00
2023-04-11T23:47:43.462Z,2.15
2023-04-11T23:50:13.690Z,1.50
2023-04-11T23:52:41.978Z,1.70
2023-04-11T23:55:11.296Z,2.15
2023-04-11T23:57:41.194Z,1.45
